sensor_id;sensor_type;location;lat;lon;timestamp;P1;durP1;ratioP1;P2;durP2;ratioP2
46308;SDS011;32037;50.820;6.494;2022-07-24T00:00:03;2.00;;;1.90;;
46308;SDS011;32037;50.820;6.494;2022-07-24T00:02:38;2.00;;;1.90;;
46308;SDS011;32037;50.820;6.494;2022-07-24T00:05:07;2.57;;;2.40;;
46308;SDS011;32037;50.820;6.494;2022-07-24T00:07:39;2.10;;;2.00;;
46308;SDS011;32037;50.820;6.494;2022-07-24T00:10:08;2.57;;;2.07;;
46308;SDS011;32037;50.820;6.494;2022-07-24T00:12:38;1.97;;;1.87;;
46308;SDS011;32037;50.820;6.494;2022-07-24T00:15:07;2.50;;;2.30;;
46308;SDS011;32037;50.820;6.494;2022-07-24T00:17:36;2.33;;;2.23;;
46308;SDS011;32037;50.820;6.494;2022-07-24T00:20:08;2.10;;;2.00;;
46308;SDS011;32037;50.820;6.494;2022-07-24T00:22:38;2.00;;;1.90;;
46308;SDS011;32037;50.820;6.494;2022-07-24T00:25:07;2.43;;;2.33;;
46308;SDS011;32037;50.820;6.494;2022-07-24T00:27:36;3.77;;;2.40;;
46308;SDS011;32037;50.820;6.494;2022-07-24T00:30:04;2.30;;;2.20;;
46308;SDS011;32037;50.820;6.494;2022-07-24T00:32:34;2.43;;;2.23;;
46308;SDS011;32037;50.820;6.494;2022-07-24T00:35:03;2.37;;;2.00;;
46308;SDS011;32037;50.820;6.494;2022-07-24T00:37:34;1.97;;;1.87;;
46308;SDS011;32037;50.820;6.494;2022-07-24T00:40:03;2.90;;;2.70;;
46308;SDS011;32037;50.820;6.494;2022-07-24T00:42:32;2.37;;;2.17;;
46308;SDS011;32037;50.820;6.494;2022-07-24T00:45:01;2.30;;;2.10;;
46308;SDS011;32037;50.820;6.494;2022-07-24T00:47:49;2.30;;;2.10;;
46308;SDS011;32037;50.820;6.494;2022-07-24T00:50:23;2.70;;;2.50;;
46308;SDS011;32037;50.820;6.494;2022-07-24T00:52:54;2.87;;;2.67;;
46308;SDS011;32037;50.820;6.494;2022-07-24T00:55:23;2.50;;;2.30;;
46308;SDS011;32037;50.820;6.494;2022-07-24T00:57:52;2.70;;;2.50;;
46308;SDS011;32037;50.820;6.494;2022-07-24T01:00:21;2.60;;;2.23;;
46308;SDS011;32037;50.820;6.494;2022-07-24T01:02:50;2.70;;;2.50;;
46308;SDS011;32037;50.820;6.494;2022-07-24T01:05:18;2.30;;;2.10;;
46308;SDS011;32037;50.820;6.494;2022-07-24T01:07:47;3.37;;;3.07;;
46308;SDS011;32037;50.820;6.494;2022-07-24T01:10:17;2.40;;;2.30;;
46308;SDS011;32037;50.820;6.494;2022-07-24T01:12:46;2.70;;;2.50;;
46308;SDS011;32037;50.820;6.494;2022-07-24T01:15:15;2.70;;;2.50;;
46308;SDS011;32037;50.820;6.494;2022-07-24T01:17:43;2.90;;;2.70;;
46308;SDS011;32037;50.820;6.494;2022-07-24T01:20:11;3.03;;;2.83;;
46308;SDS011;32037;50.820;6.494;2022-07-24T01:22:43;2.10;;;2.00;;
46308;SDS011;32037;50.820;6.494;2022-07-24T01:25:13;2.70;;;2.50;;
46308;SDS011;32037;50.820;6.494;2022-07-24T01:27:41;3.13;;;2.83;;
46308;SDS011;32037;50.820;6.494;2022-07-24T01:30:09;4.47;;;2.90;;
46308;SDS011;32037;50.820;6.494;2022-07-24T01:32:38;3.53;;;3.07;;
46308;SDS011;32037;50.820;6.494;2022-07-24T01:35:07;2.57;;;2.37;;
46308;SDS011;32037;50.820;6.494;2022-07-24T01:37:49;2.90;;;2.60;;
46308;SDS011;32037;50.820;6.494;2022-07-24T01:40:18;3.03;;;2.43;;
46308;SDS011;32037;50.820;6.494;2022-07-24T01:42:47;2.47;;;2.27;;
46308;SDS011;32037;50.820;6.494;2022-07-24T01:45:16;3.33;;;3.13;;
46308;SDS011;32037;50.820;6.494;2022-07-24T01:47:45;2.90;;;2.70;;
46308;SDS011;32037;50.820;6.494;2022-07-24T01:50:14;2.97;;;2.67;;
46308;SDS011;32037;50.820;6.494;2022-07-24T01:52:43;3.20;;;2.83;;
46308;SDS011;32037;50.820;6.494;2022-07-24T01:55:13;3.53;;;3.23;;
46308;SDS011;32037;50.820;6.494;2022-07-24T01:57:41;2.33;;;2.13;;
46308;SDS011;32037;50.820;6.494;2022-07-24T02:00:09;2.50;;;2.30;;
46308;SDS011;32037;50.820;6.494;2022-07-24T02:02:40;2.60;;;2.40;;
46308;SDS011;32037;50.820;6.494;2022-07-24T02:05:11;2.80;;;2.60;;
46308;SDS011;32037;50.820;6.494;2022-07-24T02:07:40;3.23;;;3.03;;
46308;SDS011;32037;50.820;6.494;2022-07-24T02:10:09;2.83;;;2.63;;
46308;SDS011;32037;50.820;6.494;2022-07-24T02:12:40;2.83;;;2.63;;
46308;SDS011;32037;50.820;6.494;2022-07-24T02:15:09;2.93;;;2.60;;
46308;SDS011;32037;50.820;6.494;2022-07-24T02:17:38;2.77;;;2.57;;
46308;SDS011;32037;50.820;6.494;2022-07-24T02:20:07;2.53;;;2.33;;
46308;SDS011;32037;50.820;6.494;2022-07-24T02:22:37;2.23;;;2.10;;
46308;SDS011;32037;50.820;6.494;2022-07-24T02:25:06;2.60;;;2.40;;
46308;SDS011;32037;50.820;6.494;2022-07-24T02:27:36;2.60;;;2.40;;
46308;SDS011;32037;50.820;6.494;2022-07-24T02:30:07;2.50;;;2.40;;
46308;SDS011;32037;50.820;6.494;2022-07-24T02:32:37;2.00;;;1.90;;
46308;SDS011;32037;50.820;6.494;2022-07-24T02:35:07;2.50;;;2.30;;
46308;SDS011;32037;50.820;6.494;2022-07-24T02:37:36;2.40;;;2.30;;
46308;SDS011;32037;50.820;6.494;2022-07-24T02:40:06;2.73;;;2.53;;
46308;SDS011;32037;50.820;6.494;2022-07-24T02:42:38;2.87;;;2.67;;
46308;SDS011;32037;50.820;6.494;2022-07-24T02:45:11;2.67;;;2.47;;
46308;SDS011;32037;50.820;6.494;2022-07-24T02:47:46;3.17;;;2.97;;
46308;SDS011;32037;50.820;6.494;2022-07-24T02:50:16;2.70;;;2.50;;
46308;SDS011;32037;50.820;6.494;2022-07-24T02:52:45;2.67;;;2.47;;
46308;SDS011;32037;50.820;6.494;2022-07-24T02:55:13;2.73;;;2.53;;
46308;SDS011;32037;50.820;6.494;2022-07-24T02:57:42;2.70;;;2.50;;
46308;SDS011;32037;50.820;6.494;2022-07-24T03:00:14;2.70;;;2.50;;
46308;SDS011;32037;50.820;6.494;2022-07-24T03:02:43;3.23;;;3.03;;
46308;SDS011;32037;50.820;6.494;2022-07-24T03:05:11;3.10;;;2.80;;
46308;SDS011;32037;50.820;6.494;2022-07-24T03:07:40;2.97;;;2.77;;
46308;SDS011;32037;50.820;6.494;2022-07-24T03:10:09;2.90;;;2.40;;
46308;SDS011;32037;50.820;6.494;2022-07-24T03:12:39;2.60;;;2.40;;
46308;SDS011;32037;50.820;6.494;2022-07-24T03:15:08;3.03;;;2.73;;
46308;SDS011;32037;50.820;6.494;2022-07-24T03:17:38;2.60;;;2.40;;
46308;SDS011;32037;50.820;6.494;2022-07-24T03:20:08;2.80;;;2.50;;
46308;SDS011;32037;50.820;6.494;2022-07-24T03:22:37;2.70;;;2.50;;
46308;SDS011;32037;50.820;6.494;2022-07-24T03:25:05;2.50;;;2.30;;
46308;SDS011;32037;50.820;6.494;2022-07-24T03:27:33;3.40;;;3.10;;
46308;SDS011;32037;50.820;6.494;2022-07-24T03:30:03;2.80;;;2.60;;
46308;SDS011;32037;50.820;6.494;2022-07-24T03:32:32;2.60;;;2.40;;
46308;SDS011;32037;50.820;6.494;2022-07-24T03:35:02;2.40;;;2.20;;
46308;SDS011;32037;50.820;6.494;2022-07-24T03:37:31;2.50;;;2.30;;
46308;SDS011;32037;50.820;6.494;2022-07-24T03:39:59;2.40;;;2.20;;
46308;SDS011;32037;50.820;6.494;2022-07-24T03:42:28;2.60;;;2.40;;
46308;SDS011;32037;50.820;6.494;2022-07-24T03:44:56;3.03;;;2.83;;
46308;SDS011;32037;50.820;6.494;2022-07-24T03:47:24;2.77;;;2.57;;
46308;SDS011;32037;50.820;6.494;2022-07-24T03:49:53;3.07;;;2.87;;
46308;SDS011;32037;50.820;6.494;2022-07-24T03:52:23;2.70;;;2.50;;
46308;SDS011;32037;50.820;6.494;2022-07-24T03:54:52;2.43;;;2.30;;
46308;SDS011;32037;50.820;6.494;2022-07-24T03:57:21;2.90;;;2.70;;
46308;SDS011;32037;50.820;6.494;2022-07-24T03:59:50;2.80;;;2.57;;
46308;SDS011;32037;50.820;6.494;2022-07-24T04:02:19;3.57;;;3.27;;
46308;SDS011;32037;50.820;6.494;2022-07-24T04:04:47;3.07;;;2.80;;
46308;SDS011;32037;50.820;6.494;2022-07-24T04:07:17;2.73;;;2.53;;
46308;SDS011;32037;50.820;6.494;2022-07-24T04:09:47;2.77;;;2.57;;
46308;SDS011;32037;50.820;6.494;2022-07-24T04:12:15;2.83;;;2.63;;
46308;SDS011;32037;50.820;6.494;2022-07-24T04:14:44;2.80;;;2.60;;
46308;SDS011;32037;50.820;6.494;2022-07-24T04:17:14;2.73;;;2.53;;
46308;SDS011;32037;50.820;6.494;2022-07-24T04:19:42;2.63;;;2.43;;
46308;SDS011;32037;50.820;6.494;2022-07-24T04:22:10;2.80;;;2.60;;
46308;SDS011;32037;50.820;6.494;2022-07-24T04:24:39;2.70;;;2.50;;
46308;SDS011;32037;50.820;6.494;2022-07-24T04:27:08;2.50;;;2.40;;
46308;SDS011;32037;50.820;6.494;2022-07-24T04:29:36;2.80;;;2.60;;
46308;SDS011;32037;50.820;6.494;2022-07-24T04:32:04;3.10;;;2.67;;
46308;SDS011;32037;50.820;6.494;2022-07-24T04:34:33;2.53;;;2.33;;
46308;SDS011;32037;50.820;6.494;2022-07-24T04:37:01;1.93;;;1.80;;
46308;SDS011;32037;50.820;6.494;2022-07-24T04:39:29;2.57;;;2.37;;
46308;SDS011;32037;50.820;6.494;2022-07-24T04:41:57;2.77;;;2.53;;
46308;SDS011;32037;50.820;6.494;2022-07-24T04:44:27;2.00;;;1.90;;
46308;SDS011;32037;50.820;6.494;2022-07-24T04:46:55;2.63;;;2.43;;
46308;SDS011;32037;50.820;6.494;2022-07-24T04:49:23;2.57;;;2.37;;
46308;SDS011;32037;50.820;6.494;2022-07-24T04:51:52;2.83;;;2.63;;
46308;SDS011;32037;50.820;6.494;2022-07-24T04:54:20;2.50;;;2.33;;
46308;SDS011;32037;50.820;6.494;2022-07-24T04:56:49;2.70;;;2.50;;
46308;SDS011;32037;50.820;6.494;2022-07-24T04:59:17;2.93;;;2.73;;
46308;SDS011;32037;50.820;6.494;2022-07-24T05:01:47;2.33;;;2.23;;
46308;SDS011;32037;50.820;6.494;2022-07-24T05:04:16;2.37;;;2.17;;
46308;SDS011;32037;50.820;6.494;2022-07-24T05:06:44;2.53;;;2.33;;
46308;SDS011;32037;50.820;6.494;2022-07-24T05:09:13;2.80;;;2.60;;
46308;SDS011;32037;50.820;6.494;2022-07-24T05:11:41;2.50;;;2.30;;
46308;SDS011;32037;50.820;6.494;2022-07-24T05:14:09;3.03;;;2.73;;
46308;SDS011;32037;50.820;6.494;2022-07-24T05:16:37;2.10;;;1.90;;
46308;SDS011;32037;50.820;6.494;2022-07-24T05:19:08;2.10;;;2.00;;
46308;SDS011;32037;50.820;6.494;2022-07-24T05:21:36;2.73;;;2.53;;
46308;SDS011;32037;50.820;6.494;2022-07-24T05:24:05;4.40;;;4.10;;
46308;SDS011;32037;50.820;6.494;2022-07-24T05:26:34;6.00;;;5.37;;
46308;SDS011;32037;50.820;6.494;2022-07-24T05:29:03;7.70;;;5.37;;
46308;SDS011;32037;50.820;6.494;2022-07-24T05:31:34;6.60;;;6.07;;
46308;SDS011;32037;50.820;6.494;2022-07-24T05:34:06;5.97;;;5.33;;
46308;SDS011;32037;50.820;6.494;2022-07-24T05:36:36;6.13;;;5.53;;
46308;SDS011;32037;50.820;6.494;2022-07-24T05:39:04;9.97;;;6.70;;
46308;SDS011;32037;50.820;6.494;2022-07-24T05:41:34;7.07;;;6.43;;
46308;SDS011;32037;50.820;6.494;2022-07-24T05:44:03;6.93;;;6.30;;
46308;SDS011;32037;50.820;6.494;2022-07-24T05:46:31;6.10;;;5.60;;
46308;SDS011;32037;50.820;6.494;2022-07-24T05:49:00;6.43;;;5.93;;
46308;SDS011;32037;50.820;6.494;2022-07-24T05:51:30;7.30;;;5.67;;
46308;SDS011;32037;50.820;6.494;2022-07-24T05:53:58;6.80;;;6.20;;
46308;SDS011;32037;50.820;6.494;2022-07-24T05:56:27;6.43;;;5.83;;
46308;SDS011;32037;50.820;6.494;2022-07-24T05:58:55;6.47;;;5.17;;
46308;SDS011;32037;50.820;6.494;2022-07-24T06:01:23;6.30;;;5.80;;
46308;SDS011;32037;50.820;6.494;2022-07-24T06:03:51;6.07;;;5.47;;
46308;SDS011;32037;50.820;6.494;2022-07-24T06:06:19;6.23;;;5.60;;
46308;SDS011;32037;50.820;6.494;2022-07-24T06:08:49;6.97;;;6.27;;
46308;SDS011;32037;50.820;6.494;2022-07-24T06:11:17;5.53;;;5.03;;
46308;SDS011;32037;50.820;6.494;2022-07-24T06:13:47;6.63;;;6.03;;
46308;SDS011;32037;50.820;6.494;2022-07-24T06:16:15;6.50;;;5.90;;
46308;SDS011;32037;50.820;6.494;2022-07-24T06:18:43;6.30;;;5.80;;
46308;SDS011;32037;50.820;6.494;2022-07-24T06:21:11;6.77;;;5.77;;
46308;SDS011;32037;50.820;6.494;2022-07-24T06:23:39;5.80;;;5.30;;
46308;SDS011;32037;50.820;6.494;2022-07-24T06:26:09;6.20;;;5.60;;
46308;SDS011;32037;50.820;6.494;2022-07-24T06:28:37;9.00;;;6.17;;
46308;SDS011;32037;50.820;6.494;2022-07-24T06:31:05;5.80;;;5.30;;
46308;SDS011;32037;50.820;6.494;2022-07-24T06:33:38;5.47;;;5.07;;
46308;SDS011;32037;50.820;6.494;2022-07-24T06:36:08;7.03;;;6.43;;
46308;SDS011;32037;50.820;6.494;2022-07-24T06:38:36;6.10;;;5.50;;
46308;SDS011;32037;50.820;6.494;2022-07-24T06:41:04;6.57;;;5.63;;
46308;SDS011;32037;50.820;6.494;2022-07-24T06:43:34;6.37;;;5.80;;
46308;SDS011;32037;50.820;6.494;2022-07-24T06:46:02;5.87;;;5.27;;
46308;SDS011;32037;50.820;6.494;2022-07-24T06:48:31;5.97;;;5.47;;
46308;SDS011;32037;50.820;6.494;2022-07-24T06:51:00;7.10;;;6.00;;
46308;SDS011;32037;50.820;6.494;2022-07-24T06:53:29;6.10;;;5.60;;
46308;SDS011;32037;50.820;6.494;2022-07-24T06:55:58;9.73;;;5.40;;
46308;SDS011;32037;50.820;6.494;2022-07-24T06:58:26;6.00;;;5.40;;
46308;SDS011;32037;50.820;6.494;2022-07-24T07:00:57;6.70;;;6.00;;
46308;SDS011;32037;50.820;6.494;2022-07-24T07:03:26;11.80;;;5.20;;
46308;SDS011;32037;50.820;6.494;2022-07-24T07:05:54;8.80;;;6.40;;
46308;SDS011;32037;50.820;6.494;2022-07-24T07:08:23;14.67;;;7.30;;
46308;SDS011;32037;50.820;6.494;2022-07-24T07:10:50;7.37;;;5.93;;
46308;SDS011;32037;50.820;6.494;2022-07-24T07:13:20;11.23;;;6.00;;
46308;SDS011;32037;50.820;6.494;2022-07-24T07:15:49;9.40;;;6.80;;
46308;SDS011;32037;50.820;6.494;2022-07-24T07:18:19;8.00;;;5.63;;
46308;SDS011;32037;50.820;6.494;2022-07-24T07:20:48;9.93;;;6.10;;
46308;SDS011;32037;50.820;6.494;2022-07-24T07:23:21;12.03;;;6.97;;
46308;SDS011;32037;50.820;6.494;2022-07-24T07:25:56;13.57;;;6.70;;
46308;SDS011;32037;50.820;6.494;2022-07-24T07:28:25;10.60;;;6.03;;
46308;SDS011;32037;50.820;6.494;2022-07-24T07:30:54;11.83;;;7.03;;
46308;SDS011;32037;50.820;6.494;2022-07-24T07:33:24;8.53;;;5.80;;
46308;SDS011;32037;50.820;6.494;2022-07-24T07:35:53;10.60;;;6.60;;
46308;SDS011;32037;50.820;6.494;2022-07-24T07:38:22;8.47;;;5.70;;
46308;SDS011;32037;50.820;6.494;2022-07-24T07:40:52;11.83;;;6.50;;
46308;SDS011;32037;50.820;6.494;2022-07-24T07:43:21;9.23;;;6.57;;
46308;SDS011;32037;50.820;6.494;2022-07-24T07:45:50;8.20;;;6.33;;
46308;SDS011;32037;50.820;6.494;2022-07-24T07:48:19;10.73;;;6.03;;
46308;SDS011;32037;50.820;6.494;2022-07-24T07:50:49;7.83;;;6.40;;
46308;SDS011;32037;50.820;6.494;2022-07-24T07:53:18;10.43;;;6.10;;
46308;SDS011;32037;50.820;6.494;2022-07-24T07:55:46;8.17;;;6.23;;
46308;SDS011;32037;50.820;6.494;2022-07-24T07:58:17;6.40;;;5.80;;
46308;SDS011;32037;50.820;6.494;2022-07-24T08:00:48;7.03;;;5.90;;
46308;SDS011;32037;50.820;6.494;2022-07-24T08:03:16;6.83;;;6.23;;
46308;SDS011;32037;50.820;6.494;2022-07-24T08:05:49;6.97;;;6.30;;
46308;SDS011;32037;50.820;6.494;2022-07-24T08:08:24;8.07;;;6.93;;
46308;SDS011;32037;50.820;6.494;2022-07-24T08:10:53;7.87;;;7.07;;
46308;SDS011;32037;50.820;6.494;2022-07-24T08:13:21;6.37;;;5.77;;
46308;SDS011;32037;50.820;6.494;2022-07-24T08:15:50;7.03;;;6.43;;
46308;SDS011;32037;50.820;6.494;2022-07-24T08:18:19;6.77;;;6.10;;
46308;SDS011;32037;50.820;6.494;2022-07-24T08:20:47;6.13;;;5.60;;
46308;SDS011;32037;50.820;6.494;2022-07-24T08:23:16;7.40;;;5.83;;
46308;SDS011;32037;50.820;6.494;2022-07-24T08:25:44;5.80;;;5.30;;
46308;SDS011;32037;50.820;6.494;2022-07-24T08:28:12;5.40;;;5.00;;
46308;SDS011;32037;50.820;6.494;2022-07-24T08:30:40;5.53;;;5.10;;
46308;SDS011;32037;50.820;6.494;2022-07-24T08:33:09;5.93;;;5.43;;
46308;SDS011;32037;50.820;6.494;2022-07-24T08:35:37;5.70;;;5.20;;
46308;SDS011;32037;50.820;6.494;2022-07-24T08:38:05;7.30;;;5.13;;
46308;SDS011;32037;50.820;6.494;2022-07-24T08:40:36;5.43;;;5.03;;
46308;SDS011;32037;50.820;6.494;2022-07-24T08:43:07;6.20;;;5.60;;
46308;SDS011;32037;50.820;6.494;2022-07-24T08:45:37;5.20;;;4.80;;
46308;SDS011;32037;50.820;6.494;2022-07-24T08:48:08;6.10;;;5.50;;
46308;SDS011;32037;50.820;6.494;2022-07-24T08:50:37;5.00;;;4.60;;
46308;SDS011;32037;50.820;6.494;2022-07-24T08:53:07;6.00;;;5.40;;
46308;SDS011;32037;50.820;6.494;2022-07-24T08:55:39;6.33;;;5.73;;
46308;SDS011;32037;50.820;6.494;2022-07-24T08:58:07;6.40;;;4.87;;
46308;SDS011;32037;50.820;6.494;2022-07-24T09:00:35;5.67;;;5.27;;
46308;SDS011;32037;50.820;6.494;2022-07-24T09:03:03;5.80;;;5.40;;
46308;SDS011;32037;50.820;6.494;2022-07-24T09:05:32;6.13;;;4.87;;
46308;SDS011;32037;50.820;6.494;2022-07-24T09:08:09;6.03;;;4.60;;
46308;SDS011;32037;50.820;6.494;2022-07-24T09:10:40;5.23;;;4.73;;
46308;SDS011;32037;50.820;6.494;2022-07-24T09:13:12;5.50;;;5.00;;
46308;SDS011;32037;50.820;6.494;2022-07-24T09:15:42;5.43;;;4.93;;
46308;SDS011;32037;50.820;6.494;2022-07-24T09:18:26;5.00;;;4.60;;
46308;SDS011;32037;50.820;6.494;2022-07-24T09:20:56;4.77;;;4.43;;
46308;SDS011;32037;50.820;6.494;2022-07-24T09:23:25;5.10;;;4.70;;
46308;SDS011;32037;50.820;6.494;2022-07-24T09:25:55;5.40;;;4.90;;
46308;SDS011;32037;50.820;6.494;2022-07-24T09:28:23;5.03;;;4.63;;
46308;SDS011;32037;50.820;6.494;2022-07-24T09:30:53;5.00;;;4.60;;
46308;SDS011;32037;50.820;6.494;2022-07-24T09:33:27;5.17;;;4.83;;
46308;SDS011;32037;50.820;6.494;2022-07-24T09:36:03;6.53;;;4.80;;
46308;SDS011;32037;50.820;6.494;2022-07-24T09:38:43;5.10;;;4.53;;
46308;SDS011;32037;50.820;6.494;2022-07-24T09:41:20;4.40;;;4.07;;
46308;SDS011;32037;50.820;6.494;2022-07-24T09:43:56;3.93;;;3.63;;
46308;SDS011;32037;50.820;6.494;2022-07-24T09:46:26;5.57;;;5.07;;
46308;SDS011;32037;50.820;6.494;2022-07-24T09:48:55;5.00;;;4.60;;
46308;SDS011;32037;50.820;6.494;2022-07-24T09:51:26;4.83;;;4.37;;
46308;SDS011;32037;50.820;6.494;2022-07-24T09:53:56;5.00;;;4.60;;
46308;SDS011;32037;50.820;6.494;2022-07-24T09:56:28;4.77;;;4.37;;
46308;SDS011;32037;50.820;6.494;2022-07-24T09:58:57;4.43;;;4.13;;
46308;SDS011;32037;50.820;6.494;2022-07-24T10:01:28;4.30;;;4.00;;
46308;SDS011;32037;50.820;6.494;2022-07-24T10:03:57;4.43;;;4.10;;
46308;SDS011;32037;50.820;6.494;2022-07-24T10:06:27;5.07;;;4.67;;
46308;SDS011;32037;50.820;6.494;2022-07-24T10:08:56;4.63;;;4.20;;
46308;SDS011;32037;50.820;6.494;2022-07-24T10:11:25;4.77;;;4.37;;
46308;SDS011;32037;50.820;6.494;2022-07-24T10:13:55;4.13;;;3.80;;
46308;SDS011;32037;50.820;6.494;2022-07-24T10:16:26;5.20;;;4.70;;
46308;SDS011;32037;50.820;6.494;2022-07-24T10:18:58;4.30;;;3.90;;
46308;SDS011;32037;50.820;6.494;2022-07-24T10:21:29;5.30;;;4.90;;
46308;SDS011;32037;50.820;6.494;2022-07-24T10:24:12;4.70;;;4.40;;
46308;SDS011;32037;50.820;6.494;2022-07-24T10:27:02;4.73;;;4.43;;
46308;SDS011;32037;50.820;6.494;2022-07-24T10:29:34;4.60;;;4.20;;
46308;SDS011;32037;50.820;6.494;2022-07-24T10:32:03;5.20;;;4.70;;
46308;SDS011;32037;50.820;6.494;2022-07-24T10:34:33;5.33;;;4.93;;
46308;SDS011;32037;50.820;6.494;2022-07-24T10:37:11;4.53;;;4.13;;
46308;SDS011;32037;50.820;6.494;2022-07-24T10:39:47;4.83;;;4.47;;
46308;SDS011;32037;50.820;6.494;2022-07-24T10:42:25;3.87;;;3.57;;
46308;SDS011;32037;50.820;6.494;2022-07-24T10:45:14;4.73;;;4.33;;
46308;SDS011;32037;50.820;6.494;2022-07-24T10:47:44;4.40;;;4.10;;
46308;SDS011;32037;50.820;6.494;2022-07-24T10:50:12;4.30;;;4.00;;
46308;SDS011;32037;50.820;6.494;2022-07-24T10:52:43;4.00;;;3.70;;
46308;SDS011;32037;50.820;6.494;2022-07-24T10:55:24;4.60;;;4.30;;
46308;SDS011;32037;50.820;6.494;2022-07-24T10:58:02;4.83;;;4.43;;
46308;SDS011;32037;50.820;6.494;2022-07-24T11:00:40;4.47;;;4.07;;
46308;SDS011;32037;50.820;6.494;2022-07-24T11:03:17;5.57;;;5.17;;
46308;SDS011;32037;50.820;6.494;2022-07-24T11:08:32;4.70;;;4.40;;
46308;SDS011;32037;50.820;6.494;2022-07-24T11:11:09;4.80;;;4.40;;
46308;SDS011;32037;50.820;6.494;2022-07-24T11:13:42;4.20;;;3.90;;
46308;SDS011;32037;50.820;6.494;2022-07-24T11:16:27;4.33;;;4.03;;
46308;SDS011;32037;50.820;6.494;2022-07-24T11:22:06;4.00;;;3.70;;
46308;SDS011;32037;50.820;6.494;2022-07-24T11:27:42;4.07;;;3.77;;
46308;SDS011;32037;50.820;6.494;2022-07-24T11:30:11;4.50;;;4.20;;
46308;SDS011;32037;50.820;6.494;2022-07-24T11:32:42;4.37;;;4.07;;
46308;SDS011;32037;50.820;6.494;2022-07-24T11:35:11;4.37;;;3.87;;
46308;SDS011;32037;50.820;6.494;2022-07-24T11:37:40;3.87;;;3.57;;
46308;SDS011;32037;50.820;6.494;2022-07-24T11:40:13;4.10;;;3.80;;
46308;SDS011;32037;50.820;6.494;2022-07-24T11:42:43;4.10;;;3.80;;
46308;SDS011;32037;50.820;6.494;2022-07-24T11:45:11;4.13;;;3.80;;
46308;SDS011;32037;50.820;6.494;2022-07-24T11:47:39;4.00;;;3.70;;
46308;SDS011;32037;50.820;6.494;2022-07-24T11:50:09;4.40;;;4.10;;
46308;SDS011;32037;50.820;6.494;2022-07-24T11:52:38;3.97;;;3.67;;
46308;SDS011;32037;50.820;6.494;2022-07-24T11:55:08;4.07;;;3.67;;
46308;SDS011;32037;50.820;6.494;2022-07-24T11:57:44;4.37;;;4.00;;
46308;SDS011;32037;50.820;6.494;2022-07-24T12:00:34;4.30;;;4.00;;
46308;SDS011;32037;50.820;6.494;2022-07-24T12:03:02;4.27;;;3.87;;
46308;SDS011;32037;50.820;6.494;2022-07-24T12:05:36;3.83;;;3.53;;
46308;SDS011;32037;50.820;6.494;2022-07-24T12:08:15;4.03;;;3.73;;
46308;SDS011;32037;50.820;6.494;2022-07-24T12:10:44;3.97;;;3.73;;
46308;SDS011;32037;50.820;6.494;2022-07-24T12:13:15;3.80;;;3.60;;
46308;SDS011;32037;50.820;6.494;2022-07-24T12:15:43;4.50;;;4.20;;
46308;SDS011;32037;50.820;6.494;2022-07-24T12:18:12;4.80;;;4.07;;
46308;SDS011;32037;50.820;6.494;2022-07-24T12:20:43;3.97;;;3.67;;
46308;SDS011;32037;50.820;6.494;2022-07-24T12:23:13;4.20;;;3.90;;
46308;SDS011;32037;50.820;6.494;2022-07-24T12:25:45;3.93;;;3.67;;
46308;SDS011;32037;50.820;6.494;2022-07-24T12:28:14;3.80;;;3.57;;
46308;SDS011;32037;50.820;6.494;2022-07-24T12:30:45;3.70;;;3.40;;
46308;SDS011;32037;50.820;6.494;2022-07-24T12:33:19;4.30;;;4.00;;
46308;SDS011;32037;50.820;6.494;2022-07-24T12:35:53;4.70;;;4.40;;
46308;SDS011;32037;50.820;6.494;2022-07-24T12:38:26;4.47;;;4.10;;
46308;SDS011;32037;50.820;6.494;2022-07-24T12:41:02;3.47;;;3.17;;
46308;SDS011;32037;50.820;6.494;2022-07-24T12:43:31;4.20;;;3.90;;
46308;SDS011;32037;50.820;6.494;2022-07-24T12:46:06;3.90;;;3.60;;
46308;SDS011;32037;50.820;6.494;2022-07-24T12:48:36;4.13;;;3.83;;
46308;SDS011;32037;50.820;6.494;2022-07-24T12:51:07;4.00;;;3.70;;
46308;SDS011;32037;50.820;6.494;2022-07-24T12:53:38;3.83;;;3.53;;
46308;SDS011;32037;50.820;6.494;2022-07-24T12:56:11;4.40;;;4.10;;
46308;SDS011;32037;50.820;6.494;2022-07-24T12:58:53;4.57;;;4.17;;
46308;SDS011;32037;50.820;6.494;2022-07-24T13:01:43;3.90;;;3.60;;
46308;SDS011;32037;50.820;6.494;2022-07-24T13:04:15;4.17;;;3.87;;
46308;SDS011;32037;50.820;6.494;2022-07-24T13:06:46;4.03;;;3.73;;
46308;SDS011;32037;50.820;6.494;2022-07-24T13:09:15;4.00;;;3.70;;
46308;SDS011;32037;50.820;6.494;2022-07-24T13:11:47;4.20;;;3.90;;
46308;SDS011;32037;50.820;6.494;2022-07-24T13:14:18;4.43;;;4.13;;
46308;SDS011;32037;50.820;6.494;2022-07-24T13:16:48;4.00;;;3.70;;
46308;SDS011;32037;50.820;6.494;2022-07-24T13:19:18;4.30;;;4.00;;
46308;SDS011;32037;50.820;6.494;2022-07-24T13:21:48;3.83;;;3.53;;
46308;SDS011;32037;50.820;6.494;2022-07-24T13:24:16;4.60;;;4.20;;
46308;SDS011;32037;50.820;6.494;2022-07-24T13:26:48;4.20;;;3.90;;
46308;SDS011;32037;50.820;6.494;2022-07-24T13:29:19;3.47;;;3.17;;
46308;SDS011;32037;50.820;6.494;2022-07-24T13:31:49;4.77;;;4.37;;
46308;SDS011;32037;50.820;6.494;2022-07-24T13:34:17;3.97;;;3.77;;
46308;SDS011;32037;50.820;6.494;2022-07-24T13:36:49;4.27;;;3.97;;
46308;SDS011;32037;50.820;6.494;2022-07-24T13:39:17;3.90;;;3.60;;
46308;SDS011;32037;50.820;6.494;2022-07-24T13:41:46;3.93;;;3.63;;
46308;SDS011;32037;50.820;6.494;2022-07-24T13:44:16;3.50;;;3.30;;
46308;SDS011;32037;50.820;6.494;2022-07-24T13:46:44;4.00;;;3.70;;
46308;SDS011;32037;50.820;6.494;2022-07-24T13:49:15;4.90;;;4.60;;
46308;SDS011;32037;50.820;6.494;2022-07-24T13:51:44;3.43;;;3.23;;
46308;SDS011;32037;50.820;6.494;2022-07-24T13:54:15;4.33;;;3.93;;
46308;SDS011;32037;50.820;6.494;2022-07-24T13:56:43;3.87;;;3.57;;
46308;SDS011;32037;50.820;6.494;2022-07-24T13:59:11;3.60;;;3.40;;
46308;SDS011;32037;50.820;6.494;2022-07-24T14:01:40;4.33;;;4.03;;
46308;SDS011;32037;50.820;6.494;2022-07-24T14:04:09;4.30;;;4.00;;
46308;SDS011;32037;50.820;6.494;2022-07-24T14:06:56;4.33;;;4.03;;
46308;SDS011;32037;50.820;6.494;2022-07-24T14:09:25;3.73;;;3.50;;
46308;SDS011;32037;50.820;6.494;2022-07-24T14:11:54;3.77;;;3.47;;
46308;SDS011;32037;50.820;6.494;2022-07-24T14:14:23;3.83;;;3.53;;
46308;SDS011;32037;50.820;6.494;2022-07-24T14:16:51;3.60;;;3.40;;
46308;SDS011;32037;50.820;6.494;2022-07-24T14:19:21;4.10;;;3.80;;
46308;SDS011;32037;50.820;6.494;2022-07-24T14:21:49;3.50;;;3.20;;
46308;SDS011;32037;50.820;6.494;2022-07-24T14:24:18;4.20;;;3.90;;
46308;SDS011;32037;50.820;6.494;2022-07-24T14:26:49;4.37;;;3.97;;
46308;SDS011;32037;50.820;6.494;2022-07-24T14:29:17;3.70;;;3.40;;
46308;SDS011;32037;50.820;6.494;2022-07-24T14:31:45;4.03;;;3.73;;
46308;SDS011;32037;50.820;6.494;2022-07-24T14:34:14;3.90;;;3.57;;
46308;SDS011;32037;50.820;6.494;2022-07-24T14:36:42;3.87;;;3.67;;
46308;SDS011;32037;50.820;6.494;2022-07-24T14:39:10;3.93;;;3.63;;
46308;SDS011;32037;50.820;6.494;2022-07-24T14:41:39;4.33;;;3.93;;
46308;SDS011;32037;50.820;6.494;2022-07-24T14:44:09;4.23;;;3.93;;
46308;SDS011;32037;50.820;6.494;2022-07-24T14:46:38;3.53;;;3.33;;
46308;SDS011;32037;50.820;6.494;2022-07-24T14:49:07;4.20;;;3.90;;
46308;SDS011;32037;50.820;6.494;2022-07-24T14:51:38;3.50;;;3.30;;
46308;SDS011;32037;50.820;6.494;2022-07-24T14:54:07;3.70;;;3.40;;
46308;SDS011;32037;50.820;6.494;2022-07-24T14:56:37;3.80;;;3.53;;
46308;SDS011;32037;50.820;6.494;2022-07-24T14:59:05;4.10;;;3.80;;
46308;SDS011;32037;50.820;6.494;2022-07-24T15:01:46;4.30;;;4.00;;
46308;SDS011;32037;50.820;6.494;2022-07-24T15:04:16;3.87;;;3.60;;
46308;SDS011;32037;50.820;6.494;2022-07-24T15:06:44;4.03;;;3.73;;
46308;SDS011;32037;50.820;6.494;2022-07-24T15:09:12;3.93;;;3.63;;
46308;SDS011;32037;50.820;6.494;2022-07-24T15:11:40;4.67;;;4.30;;
46308;SDS011;32037;50.820;6.494;2022-07-24T15:14:09;3.40;;;3.20;;